sensor_id;sensor_type;location;lat;lon;timestamp;pressure;altitude;pressure_sealevel;temperature
72054;BMP280;59918;51.280;7.950;2023-02-11T00:00:22;99714.66;;;6.10
72054;BMP280;59918;51.280;7.950;2023-02-11T00:02:47;99713.84;;;6.10
72054;BMP280;59918;51.280;7.950;2023-02-11T00:05:12;99719.06;;;6.08
72054;BMP280;59918;51.280;7.950;2023-02-11T00:07:37;99712.63;;;6.04
72054;BMP280;59918;51.280;7.950;2023-02-11T00:10:04;99711.69;;;6.05
72054;BMP280;59918;51.280;7.950;2023-02-11T00:12:29;99696.59;;;6.02
72054;BMP280;59918;51.280;7.950;2023-02-11T00:14:54;99688.53;;;5.97
72054;BMP280;59918;51.280;7.950;2023-02-11T00:17:20;99681.13;;;5.94
72054;BMP280;59918;51.280;7.950;2023-02-11T00:19:51;99682.88;;;5.94
72054;BMP280;59918;51.280;7.950;2023-02-11T00:22:17;99676.97;;;5.93
72054;BMP280;59918;51.280;7.950;2023-02-11T00:24:42;99690.53;;;5.94
72054;BMP280;59918;51.280;7.950;2023-02-11T00:27:07;99683.97;;;5.91
72054;BMP280;59918;51.280;7.950;2023-02-11T00:29:36;99677.22;;;5.90
72054;BMP280;59918;51.280;7.950;2023-02-11T00:32:02;99674.25;;;5.85
72054;BMP280;59918;51.280;7.950;2023-02-11T00:34:27;99673.59;;;5.83
72054;BMP280;59918;51.280;7.950;2023-02-11T00:36:52;99662.53;;;5.83
72054;BMP280;59918;51.280;7.950;2023-02-11T00:39:17;99661.06;;;5.81
72054;BMP280;59918;51.280;7.950;2023-02-11T00:41:43;99661.75;;;5.82
72054;BMP280;59918;51.280;7.950;2023-02-11T00:44:08;99654.09;;;5.82
72054;BMP280;59918;51.280;7.950;2023-02-11T00:46:36;99662.41;;;5.84
72054;BMP280;59918;51.280;7.950;2023-02-11T00:49:01;99660.66;;;5.85
72054;BMP280;59918;51.280;7.950;2023-02-11T00:51:27;99657.19;;;5.86
72054;BMP280;59918;51.280;7.950;2023-02-11T00:53:53;99659.88;;;5.84
72054;BMP280;59918;51.280;7.950;2023-02-11T00:56:18;99657.31;;;5.84
72054;BMP280;59918;51.280;7.950;2023-02-11T00:58:44;99658.94;;;5.85
72054;BMP280;59918;51.280;7.950;2023-02-11T01:01:09;99665.09;;;5.83
72054;BMP280;59918;51.280;7.950;2023-02-11T01:03:35;99652.31;;;5.83
72054;BMP280;59918;51.280;7.950;2023-02-11T01:06:00;99659.47;;;5.80
72054;BMP280;59918;51.280;7.950;2023-02-11T01:08:26;99658.91;;;5.76
72054;BMP280;59918;51.280;7.950;2023-02-11T01:10:59;99657.28;;;5.75
72054;BMP280;59918;51.280;7.950;2023-02-11T01:13:26;99658.91;;;5.76
72054;BMP280;59918;51.280;7.950;2023-02-11T01:15:52;99650.97;;;5.79
72054;BMP280;59918;51.280;7.950;2023-02-11T01:18:17;99637.41;;;5.79
72054;BMP280;59918;51.280;7.950;2023-02-11T01:20:43;99639.16;;;5.78
72054;BMP280;59918;51.280;7.950;2023-02-11T01:23:08;99644.25;;;5.78
72054;BMP280;59918;51.280;7.950;2023-02-11T01:25:33;99648.56;;;5.78
72054;BMP280;59918;51.280;7.950;2023-02-11T01:27:59;99661.06;;;5.81
72054;BMP280;59918;51.280;7.950;2023-02-11T01:30:24;99667.53;;;5.84
72054;BMP280;59918;51.280;7.950;2023-02-11T01:32:49;99662.16;;;5.87
72054;BMP280;59918;51.280;7.950;2023-02-11T01:35:14;99667.00;;;5.90
72054;BMP280;59918;51.280;7.950;2023-02-11T01:37:40;99667.97;;;5.89
72054;BMP280;59918;51.280;7.950;2023-02-11T01:40:11;99675.34;;;5.92
72054;BMP280;59918;51.280;7.950;2023-02-11T01:42:37;99678.84;;;5.91
72054;BMP280;59918;51.280;7.950;2023-02-11T01:48:05;99681.66;;;5.88
72054;BMP280;59918;51.280;7.950;2023-02-11T01:50:32;99674.94;;;5.87
72054;BMP280;59918;51.280;7.950;2023-02-11T01:52:57;99672.22;;;5.89
72054;BMP280;59918;51.280;7.950;2023-02-11T01:55:22;99672.13;;;5.90
72054;BMP280;59918;51.280;7.950;2023-02-11T01:57:51;99672.13;;;5.90
72054;BMP280;59918;51.280;7.950;2023-02-11T02:03:16;99663.09;;;5.86
72054;BMP280;59918;51.280;7.950;2023-02-11T02:09:02;99654.41;;;5.69
72054;BMP280;59918;51.280;7.950;2023-02-11T02:11:28;99650.22;;;5.68
72054;BMP280;59918;51.280;7.950;2023-02-11T02:13:53;99658.72;;;5.68
72054;BMP280;59918;51.280;7.950;2023-02-11T02:16:20;99650.22;;;5.68
72054;BMP280;59918;51.280;7.950;2023-02-11T02:24:48;99629.00;;;5.67
72054;BMP280;59918;51.280;7.950;2023-02-11T02:27:32;99614.88;;;5.63
72054;BMP280;59918;51.280;7.950;2023-02-11T02:39:00;99583.94;;;5.47
72054;BMP280;59918;51.280;7.950;2023-02-11T02:41:31;99586.22;;;5.41
72054;BMP280;59918;51.280;7.950;2023-02-11T02:43:57;99584.75;;;5.39
72054;BMP280;59918;51.280;7.950;2023-02-11T02:46:26;99582.03;;;5.40
72054;BMP280;59918;51.280;7.950;2023-02-11T02:48:53;99581.78;;;5.43
72054;BMP280;59918;51.280;7.950;2023-02-11T03:04:47;99596.75;;;5.57
72054;BMP280;59918;51.280;7.950;2023-02-11T03:12:18;99596.34;;;5.61
72054;BMP280;59918;51.280;7.950;2023-02-11T03:14:45;99593.66;;;5.63
72054;BMP280;59918;51.280;7.950;2023-02-11T03:17:12;99585.72;;;5.66
72054;BMP280;59918;51.280;7.950;2023-02-11T03:19:43;99582.38;;;5.65
72054;BMP280;59918;51.280;7.950;2023-02-11T03:22:21;99585.22;;;5.62
72054;BMP280;59918;51.280;7.950;2023-02-11T03:24:49;99581.97;;;5.60
72054;BMP280;59918;51.280;7.950;2023-02-11T03:27:16;99585.31;;;5.61
72054;BMP280;59918;51.280;7.950;2023-02-11T03:32:23;99586.13;;;5.61
72054;BMP280;59918;51.280;7.950;2023-02-11T03:35:14;99582.09;;;5.59
72054;BMP280;59918;51.280;7.950;2023-02-11T03:38:05;99583.84;;;5.58
72054;BMP280;59918;51.280;7.950;2023-02-11T03:40:35;99583.69;;;5.60
72054;BMP280;59918;51.280;7.950;2023-02-11T03:43:25;99589.75;;;5.59
72054;BMP280;59918;51.280;7.950;2023-02-11T03:45:52;99590.56;;;5.59
72054;BMP280;59918;51.280;7.950;2023-02-11T03:48:21;99587.88;;;5.61
72054;BMP280;59918;51.280;7.950;2023-02-11T03:50:50;99584.25;;;5.63
72054;BMP280;59918;51.280;7.950;2023-02-11T03:53:19;99574.72;;;5.65
72054;BMP280;59918;51.280;7.950;2023-02-11T03:55:46;99570.41;;;5.66
72054;BMP280;59918;51.280;7.950;2023-02-11T03:58:11;99575.53;;;5.66
72054;BMP280;59918;51.280;7.950;2023-02-11T04:00:39;99577.16;;;5.67
72054;BMP280;59918;51.280;7.950;2023-02-11T04:03:06;99567.84;;;5.66
72054;BMP280;59918;51.280;7.950;2023-02-11T04:05:32;99574.72;;;5.65
72054;BMP280;59918;51.280;7.950;2023-02-11T04:07:57;99570.69;;;5.63
72054;BMP280;59918;51.280;7.950;2023-02-11T04:10:23;99576.47;;;5.65
72054;BMP280;59918;51.280;7.950;2023-02-11T04:12:48;99567.06;;;5.65
72054;BMP280;59918;51.280;7.950;2023-02-11T04:15:14;99567.06;;;5.65
72054;BMP280;59918;51.280;7.950;2023-02-11T04:17:39;99558.47;;;5.66
72054;BMP280;59918;51.280;7.950;2023-02-11T04:20:04;99561.84;;;5.67
72054;BMP280;59918;51.280;7.950;2023-02-11T04:22:30;99569.63;;;5.65
72054;BMP280;59918;51.280;7.950;2023-02-11T04:24:55;99558.59;;;5.65
72054;BMP280;59918;51.280;7.950;2023-02-11T04:27:20;99548.38;;;5.65
72054;BMP280;59918;51.280;7.950;2023-02-11T04:29:46;99543.53;;;5.62
72054;BMP280;59918;51.280;7.950;2023-02-11T04:32:11;99536.84;;;5.61
72054;BMP280;59918;51.280;7.950;2023-02-11T04:34:36;99543.53;;;5.62
72054;BMP280;59918;51.280;7.950;2023-02-11T04:37:02;99543.69;;;5.60
72054;BMP280;59918;51.280;7.950;2023-02-11T04:39:27;99543.81;;;5.59
72054;BMP280;59918;51.280;7.950;2023-02-11T04:41:52;99552.41;;;5.58
72054;BMP280;59918;51.280;7.950;2023-02-11T04:44:18;99559.13;;;5.59
72054;BMP280;59918;51.280;7.950;2023-02-11T04:46:43;99565.03;;;5.59
72054;BMP280;59918;51.280;7.950;2023-02-11T04:49:12;99574.31;;;5.60
72054;BMP280;59918;51.280;7.950;2023-02-11T04:51:37;99576.03;;;5.60
72054;BMP280;59918;51.280;7.950;2023-02-11T04:54:02;99576.88;;;5.60
72054;BMP280;59918;51.280;7.950;2023-02-11T04:56:28;99570.94;;;5.60
72054;BMP280;59918;51.280;7.950;2023-02-11T04:58:53;99576.88;;;5.60
72054;BMP280;59918;51.280;7.950;2023-02-11T05:01:18;99579.28;;;5.62
72054;BMP280;59918;51.280;7.950;2023-02-11T05:03:44;99575.13;;;5.61
72054;BMP280;59918;51.280;7.950;2023-02-11T05:06:10;99571.34;;;5.55
72054;BMP280;59918;51.280;7.950;2023-02-11T05:08:35;99558.97;;;5.51
72054;BMP280;59918;51.280;7.950;2023-02-11T05:11:00;99558.19;;;5.50
72054;BMP280;59918;51.280;7.950;2023-02-11T05:13:26;99565.00;;;5.50
72054;BMP280;59918;51.280;7.950;2023-02-11T05:15:51;99565.28;;;5.47
72054;BMP280;59918;51.280;7.950;2023-02-11T05:18:16;99560.84;;;5.49
72054;BMP280;59918;51.280;7.950;2023-02-11T05:20:42;99558.97;;;5.51
72054;BMP280;59918;51.280;7.950;2023-02-11T05:23:08;99565.69;;;5.52
72054;BMP280;59918;51.280;7.950;2023-02-11T05:25:33;99573.22;;;5.53
72054;BMP280;59918;51.280;7.950;2023-02-11T05:27:59;99579.94;;;5.54
72054;BMP280;59918;51.280;7.950;2023-02-11T05:30:24;99586.09;;;5.52
72054;BMP280;59918;51.280;7.950;2023-02-11T05:32:50;99577.09;;;5.48
72054;BMP280;59918;51.280;7.950;2023-02-11T05:35:15;99581.66;;;5.44
72054;BMP280;59918;51.280;7.950;2023-02-11T05:37:41;99578.03;;;5.47
72054;BMP280;59918;51.280;7.950;2023-02-11T05:40:07;99586.50;;;5.47
72054;BMP280;59918;51.280;7.950;2023-02-11T05:42:32;99588.38;;;5.45
72054;BMP280;59918;51.280;7.950;2023-02-11T05:44:58;99593.34;;;5.47
72054;BMP280;59918;51.280;7.950;2023-02-11T05:47:23;99592.41;;;5.48
72054;BMP280;59918;51.280;7.950;2023-02-11T05:49:48;99588.66;;;5.52
72054;BMP280;59918;51.280;7.950;2023-02-11T05:52:14;99586.09;;;5.52
72054;BMP280;59918;51.280;7.950;2023-02-11T05:54:39;99587.84;;;5.51
72054;BMP280;59918;51.280;7.950;2023-02-11T05:57:04;99591.88;;;5.54
72054;BMP280;59918;51.280;7.950;2023-02-11T05:59:29;99596.47;;;5.50
72054;BMP280;59918;51.280;7.950;2023-02-11T06:01:55;99593.06;;;5.50
72054;BMP280;59918;51.280;7.950;2023-02-11T06:04:20;99589.59;;;5.51
72054;BMP280;59918;51.280;7.950;2023-02-11T06:06:45;99595.63;;;5.50
72054;BMP280;59918;51.280;7.950;2023-02-11T06:09:10;99590.53;;;5.50
72054;BMP280;59918;51.280;7.950;2023-02-11T06:11:36;99580.47;;;5.48
72054;BMP280;59918;51.280;7.950;2023-02-11T06:14:01;99587.28;;;5.48
72054;BMP280;59918;51.280;7.950;2023-02-11T06:16:27;99583.38;;;5.44
72054;BMP280;59918;51.280;7.950;2023-02-11T06:18:52;99586.09;;;5.43
72054;BMP280;59918;51.280;7.950;2023-02-11T06:21:17;99579.34;;;5.42
72054;BMP280;59918;51.280;7.950;2023-02-11T06:23:42;99585.25;;;5.42
72054;BMP280;59918;51.280;7.950;2023-02-11T06:26:16;99581.22;;;5.40
72054;BMP280;59918;51.280;7.950;2023-02-11T06:28:41;99583.00;;;5.39
72054;BMP280;59918;51.280;7.950;2023-02-11T06:31:07;99578.00;;;5.38
72054;BMP280;59918;51.280;7.950;2023-02-11T06:33:33;99578.69;;;5.40
72054;BMP280;59918;51.280;7.950;2023-02-11T06:35:59;99584.75;;;5.39
72054;BMP280;59918;51.280;7.950;2023-02-11T06:38:24;99580.56;;;5.38
72054;BMP280;59918;51.280;7.950;2023-02-11T06:40:49;99578.13;;;5.36
72054;BMP280;59918;51.280;7.950;2023-02-11T06:43:15;99582.19;;;5.39
72054;BMP280;59918;51.280;7.950;2023-02-11T06:45:41;99583.91;;;5.38
72054;BMP280;59918;51.280;7.950;2023-02-11T06:48:06;99581.34;;;5.38
72054;BMP280;59918;51.280;7.950;2023-02-11T06:50:31;99590.53;;;5.41
72054;BMP280;59918;51.280;7.950;2023-02-11T06:52:58;99586.91;;;5.43
72054;BMP280;59918;51.280;7.950;2023-02-11T06:55:23;99592.69;;;5.45
72054;BMP280;59918;51.280;7.950;2023-02-11T06:57:48;99600.34;;;5.45
72054;BMP280;59918;51.280;7.950;2023-02-11T07:00:14;99599.53;;;5.44
72054;BMP280;59918;51.280;7.950;2023-02-11T07:02:39;99596.16;;;5.44
72054;BMP280;59918;51.280;7.950;2023-02-11T07:05:06;99596.81;;;5.46
72054;BMP280;59918;51.280;7.950;2023-02-11T07:07:31;99591.88;;;5.44
72054;BMP280;59918;51.280;7.950;2023-02-11T07:09:56;99590.13;;;5.45
72054;BMP280;59918;51.280;7.950;2023-02-11T07:12:21;99595.22;;;5.45
72054;BMP280;59918;51.280;7.950;2023-02-11T07:14:47;99590.00;;;5.46
72054;BMP280;59918;51.280;7.950;2023-02-11T07:17:12;99600.88;;;5.48
72054;BMP280;59918;51.280;7.950;2023-02-11T07:19:37;99594.81;;;5.49
72054;BMP280;59918;51.280;7.950;2023-02-11T07:22:02;99597.50;;;5.48
72054;BMP280;59918;51.280;7.950;2023-02-11T07:24:28;99598.34;;;5.48
72054;BMP280;59918;51.280;7.950;2023-02-11T07:26:53;99601.00;;;5.47
72054;BMP280;59918;51.280;7.950;2023-02-11T07:29:18;99597.50;;;5.48
72054;BMP280;59918;51.280;7.950;2023-02-11T07:31:43;99603.44;;;5.48
72054;BMP280;59918;51.280;7.950;2023-02-11T07:34:09;99608.66;;;5.47
72054;BMP280;59918;51.280;7.950;2023-02-11T07:36:35;99612.97;;;5.46
72054;BMP280;59918;51.280;7.950;2023-02-11T07:39:01;99613.75;;;5.47
72054;BMP280;59918;51.280;7.950;2023-02-11T07:41:26;99620.34;;;5.49
72054;BMP280;59918;51.280;7.950;2023-02-11T07:43:52;99626.94;;;5.52
72054;BMP280;59918;51.280;7.950;2023-02-11T07:46:23;99627.75;;;5.52
72054;BMP280;59918;51.280;7.950;2023-02-11T07:48:49;99625.34;;;5.51
72054;BMP280;59918;51.280;7.950;2023-02-11T07:51:26;99619.84;;;5.55
72054;BMP280;59918;51.280;7.950;2023-02-11T07:53:54;99615.69;;;5.54
72054;BMP280;59918;51.280;7.950;2023-02-11T07:56:20;99612.19;;;5.55
72054;BMP280;59918;51.280;7.950;2023-02-11T07:58:46;99627.25;;;5.58
72054;BMP280;59918;51.280;7.950;2023-02-11T08:01:16;99638.94;;;5.61
72054;BMP280;59918;51.280;7.950;2023-02-11T08:03:41;99647.41;;;5.61
72054;BMP280;59918;51.280;7.950;2023-02-11T08:06:09;99637.06;;;5.63
72054;BMP280;59918;51.280;7.950;2023-02-11T08:08:35;99634.22;;;5.66
72054;BMP280;59918;51.280;7.950;2023-02-11T08:11:08;99625.53;;;5.68
72054;BMP280;59918;51.280;7.950;2023-02-11T08:13:34;99633.88;;;5.70
72054;BMP280;59918;51.280;7.950;2023-02-11T08:15:59;99629.69;;;5.69
72054;BMP280;59918;51.280;7.950;2023-02-11T08:18:24;99643.28;;;5.70
72054;BMP280;59918;51.280;7.950;2023-02-11T08:20:50;99644.19;;;5.69
72054;BMP280;59918;51.280;7.950;2023-02-11T08:23:15;99645.94;;;5.68
72054;BMP280;59918;51.280;7.950;2023-02-11T08:25:40;99645.00;;;5.69
72054;BMP280;59918;51.280;7.950;2023-02-11T08:28:05;99649.19;;;5.70
72054;BMP280;59918;51.280;7.950;2023-02-11T08:30:31;99640.47;;;5.73
72054;BMP280;59918;51.280;7.950;2023-02-11T08:32:56;99649.78;;;5.74
72054;BMP280;59918;51.280;7.950;2023-02-11T08:35:21;99656.47;;;5.75
72054;BMP280;59918;51.280;7.950;2023-02-11T08:37:46;99658.09;;;5.76
72054;BMP280;59918;51.280;7.950;2023-02-11T08:40:12;99664.56;;;5.80
72054;BMP280;59918;51.280;7.950;2023-02-11T08:42:37;99669.41;;;5.82
72054;BMP280;59918;51.280;7.950;2023-02-11T08:45:02;99666.84;;;5.82
72054;BMP280;59918;51.280;7.950;2023-02-11T08:47:28;99676.00;;;5.85
72054;BMP280;59918;51.280;7.950;2023-02-11T08:49:53;99681.53;;;5.90
72054;BMP280;59918;51.280;7.950;2023-02-11T08:52:18;99682.09;;;5.93
72054;BMP280;59918;51.280;7.950;2023-02-11T08:54:43;99690.66;;;5.92
72054;BMP280;59918;51.280;7.950;2023-02-11T08:57:09;99686.22;;;5.94
72054;BMP280;59918;51.280;7.950;2023-02-11T08:59:36;99683.56;;;5.96
72054;BMP280;59918;51.280;7.950;2023-02-11T09:02:02;99688.53;;;5.97
72054;BMP280;59918;51.280;7.950;2023-02-11T09:04:27;99686.78;;;5.98
72054;BMP280;59918;51.280;7.950;2023-02-11T09:06:52;99700.13;;;6.01
72054;BMP280;59918;51.280;7.950;2023-02-11T09:09:17;99698.25;;;6.03
72054;BMP280;59918;51.280;7.950;2023-02-11T09:11:43;99695.69;;;6.03
72054;BMP280;59918;51.280;7.950;2023-02-11T09:14:19;99697.28;;;6.04
72054;BMP280;59918;51.280;7.950;2023-02-11T09:16:45;99702.50;;;6.03
72054;BMP280;59918;51.280;7.950;2023-02-11T09:19:10;99697.97;;;6.06
72054;BMP280;59918;51.280;7.950;2023-02-11T09:21:36;99695.28;;;6.08
72054;BMP280;59918;51.280;7.950;2023-02-11T09:24:01;99696.88;;;6.09
72054;BMP280;59918;51.280;7.950;2023-02-11T09:26:29;99693.41;;;6.10
72054;BMP280;59918;51.280;7.950;2023-02-11T09:28:55;99687.50;;;6.09
72054;BMP280;59918;51.280;7.950;2023-02-11T09:31:22;99689.78;;;6.12
72054;BMP280;59918;51.280;7.950;2023-02-11T09:33:49;99689.78;;;6.12
72054;BMP280;59918;51.280;7.950;2023-02-11T09:36:23;99683.47;;;6.16
72054;BMP280;59918;51.280;7.950;2023-02-11T09:38:49;99690.88;;;6.19
72054;BMP280;59918;51.280;7.950;2023-02-11T09:44:17;99706.19;;;6.28
72054;BMP280;59918;51.280;7.950;2023-02-11T09:46:48;99703.41;;;6.31
72054;BMP280;59918;51.280;7.950;2023-02-11T09:49:21;99707.56;;;6.23
72054;BMP280;59918;51.280;7.950;2023-02-11T09:54:56;99710.41;;;6.39
72054;BMP280;59918;51.280;7.950;2023-02-11T09:57:25;99712.69;;;6.42
72054;BMP280;59918;51.280;7.950;2023-02-11T09:59:52;99712.44;;;6.45
72054;BMP280;59918;51.280;7.950;2023-02-11T10:02:31;99712.28;;;6.55
72054;BMP280;59918;51.280;7.950;2023-02-11T10:13:34;99718.47;;;6.81
72054;BMP280;59918;51.280;7.950;2023-02-11T10:19:26;99723.34;;;6.93
72054;BMP280;59918;51.280;7.950;2023-02-11T10:24:33;99733.28;;;7.06
72054;BMP280;59918;51.280;7.950;2023-02-11T10:27:12;99740.84;;;7.07
72054;BMP280;59918;51.280;7.950;2023-02-11T10:30:06;99735.84;;;7.15
72054;BMP280;59918;51.280;7.950;2023-02-11T10:33:14;99740.28;;;7.23
72054;BMP280;59918;51.280;7.950;2023-02-11T10:35:42;99745.25;;;7.24
72054;BMP280;59918;51.280;7.950;2023-02-11T10:38:09;99735.97;;;7.23
72054;BMP280;59918;51.280;7.950;2023-02-11T10:40:35;99735.19;;;7.23
72054;BMP280;59918;51.280;7.950;2023-02-11T10:43:09;99728.16;;;7.25
72054;BMP280;59918;51.280;7.950;2023-02-11T10:45:41;99717.09;;;7.24
72054;BMP280;59918;51.280;7.950;2023-02-11T10:48:43;99717.78;;;7.26
72054;BMP280;59918;51.280;7.950;2023-02-11T10:53:36;99721.00;;;7.28
72054;BMP280;59918;51.280;7.950;2023-02-11T10:56:02;99720.31;;;7.35
72054;BMP280;59918;51.280;7.950;2023-02-11T10:58:40;99724.22;;;7.39
72054;BMP280;59918;51.280;7.950;2023-02-11T11:01:08;99723.41;;;7.39
72054;BMP280;59918;51.280;7.950;2023-02-11T11:03:52;99723.53;;;7.37
72054;BMP280;59918;51.280;7.950;2023-02-11T11:06:30;99729.22;;;7.31
72054;BMP280;59918;51.280;7.950;2023-02-11T11:08:55;99728.53;;;7.29
72054;BMP280;59918;51.280;7.950;2023-02-11T11:11:22;99736.22;;;7.29
72054;BMP280;59918;51.280;7.950;2023-02-11T11:19:13;99740.84;;;7.17
72054;BMP280;59918;51.280;7.950;2023-02-11T11:21:47;99736.53;;;7.17
72054;BMP280;59918;51.280;7.950;2023-02-11T11:24:27;99735.84;;;7.15
72054;BMP280;59918;51.280;7.950;2023-02-11T11:26:55;99747.31;;;7.11
72054;BMP280;59918;51.280;7.950;2023-02-11T11:32:27;99737.44;;;7.16
72054;BMP280;59918;51.280;7.950;2023-02-11T11:34:54;99745.97;;;7.07
72054;BMP280;59918;51.280;7.950;2023-02-11T11:37:28;99747.72;;;7.07
72054;BMP280;59918;51.280;7.950;2023-02-11T11:42:41;99746.88;;;7.06
72054;BMP280;59918;51.280;7.950;2023-02-11T11:58:00;99741.88;;;7.24
72054;BMP280;59918;51.280;7.950;2023-02-11T12:06:12;99740.25;;;7.32
72054;BMP280;59918;51.280;7.950;2023-02-11T12:20:22;99727.84;;;7.46
72054;BMP280;59918;51.280;7.950;2023-02-11T12:25:42;99729.81;;;7.62
72054;BMP280;59918;51.280;7.950;2023-02-11T12:29:16;99730.31;;;7.65
72054;BMP280;59918;51.280;7.950;2023-02-11T12:36:53;99716.69;;;7.74
72054;BMP280;59918;51.280;7.950;2023-02-11T12:55:54;99725.75;;;7.59
72054;BMP280;59918;51.280;7.950;2023-02-11T12:58:22;99723.22;;;7.59
72054;BMP280;59918;51.280;7.950;2023-02-11T13:00:54;99722.94;;;7.62
72054;BMP280;59918;51.280;7.950;2023-02-11T13:03:36;99731.66;;;7.69
72054;BMP280;59918;51.280;7.950;2023-02-11T13:06:12;99728.31;;;7.68
72054;BMP280;59918;51.280;7.950;2023-02-11T13:08:47;99729.66;;;7.63
72054;BMP280;59918;51.280;7.950;2023-02-11T13:13:56;99724.03;;;7.60
72054;BMP280;59918;51.280;7.950;2023-02-11T13:16:32;99724.84;;;7.60
72054;BMP280;59918;51.280;7.950;2023-02-11T13:27:11;99726.94;;;7.74
72054;BMP280;59918;51.280;7.950;2023-02-11T13:32:20;99708.88;;;7.75
72054;BMP280;59918;51.280;7.950;2023-02-11T13:37:30;99721.53;;;7.77
72054;BMP280;59918;51.280;7.950;2023-02-11T13:40:19;99713.44;;;7.81
72054;BMP280;59918;51.280;7.950;2023-02-11T13:45:17;99716.59;;;7.93
72054;BMP280;59918;51.280;7.950;2023-02-11T13:47:55;99720.00;;;7.93
72054;BMP280;59918;51.280;7.950;2023-02-11T13:50:23;99708.63;;;7.96
72054;BMP280;59918;51.280;7.950;2023-02-11T13:52:56;99719.25;;;8.00
72054;BMP280;59918;51.280;7.950;2023-02-11T13:55:22;99716.69;;;8.00
72054;BMP280;59918;51.280;7.950;2023-02-11T14:05:37;99732.59;;;8.04
72054;BMP280;59918;51.280;7.950;2023-02-11T14:15:46;99730.84;;;8.04
72054;BMP280;59918;51.280;7.950;2023-02-11T14:18:36;99730.56;;;8.07
72054;BMP280;59918;51.280;7.950;2023-02-11T14:21:14;99728.28;;;8.04
72054;BMP280;59918;51.280;7.950;2023-02-11T14:23:41;99732.47;;;8.05
72054;BMP280;59918;51.280;7.950;2023-02-11T14:26:57;99727.03;;;8.08
72054;BMP280;59918;51.280;7.950;2023-02-11T14:29:17;99720.31;;;8.07
72054;BMP280;59918;51.280;7.950;2023-02-11T14:37:26;99728.69;;;8.09
72054;BMP280;59918;51.280;7.950;2023-02-11T14:42:35;99723.97;;;8.05
72054;BMP280;59918;51.280;7.950;2023-02-11T14:45:07;99734.22;;;8.05
72054;BMP280;59918;51.280;7.950;2023-02-11T14:50:25;99741.00;;;7.97
72054;BMP280;59918;51.280;7.950;2023-02-11T14:52:52;99737.75;;;7.95
72054;BMP280;59918;51.280;7.950;2023-02-11T15:00:36;99746.94;;;7.97
72054;BMP280;59918;51.280;7.950;2023-02-11T15:03:01;99755.13;;;8.00
72054;BMP280;59918;51.280;7.950;2023-02-11T15:05:27;99752.88;;;7.98
72054;BMP280;59918;51.280;7.950;2023-02-11T15:07:58;99754.47;;;7.98
72054;BMP280;59918;51.280;7.950;2023-02-11T15:10:36;99758.13;;;7.96
72054;BMP280;59918;51.280;7.950;2023-02-11T15:13:06;99764.03;;;7.97
72054;BMP280;59918;51.280;7.950;2023-02-11T15:15:32;99767.16;;;8.00
72054;BMP280;59918;51.280;7.950;2023-02-11T15:18:00;99764.88;;;7.97
72054;BMP280;59918;51.280;7.950;2023-02-11T15:20:28;99764.22;;;7.95
72054;BMP280;59918;51.280;7.950;2023-02-11T15:22:58;99774.59;;;7.94
72054;BMP280;59918;51.280;7.950;2023-02-11T15:25:24;99777.03;;;7.95
72054;BMP280;59918;51.280;7.950;2023-02-11T15:27:52;99764.22;;;7.95
72054;BMP280;59918;51.280;7.950;2023-02-11T15:32:53;99770.69;;;7.90
72054;BMP280;59918;51.280;7.950;2023-02-11T15:35:19;99768.41;;;7.87
72054;BMP280;59918;51.280;7.950;2023-02-11T15:37:44;99767.91;;;7.83
72054;BMP280;59918;51.280;7.950;2023-02-11T15:40:14;99775.59;;;7.83
72054;BMP280;59918;51.280;7.950;2023-02-11T15:42:51;99776.66;;;7.81
72054;BMP280;59918;51.280;7.950;2023-02-11T15:45:22;99766.41;;;7.81
72054;BMP280;59918;51.280;7.950;2023-02-11T15:47:53;99770.72;;;7.80
72054;BMP280;59918;51.280;7.950;2023-02-11T15:50:30;99769.94;;;7.80
72054;BMP280;59918;51.280;7.950;2023-02-11T15:52:59;99778.28;;;7.82
72054;BMP280;59918;51.280;7.950;2023-02-11T15:55:27;99779.22;;;7.81
72054;BMP280;59918;51.280;7.950;2023-02-11T15:57:55;99789.47;;;7.81
72054;BMP280;59918;51.280;7.950;2023-02-11T16:00:23;99790.56;;;7.78
72054;BMP280;59918;51.280;7.950;2023-02-11T16:02:51;99787.44;;;7.75
72054;BMP280;59918;51.280;7.950;2023-02-11T16:07:56;99785.19;;;7.72
72054;BMP280;59918;51.280;7.950;2023-02-11T16:10:30;99786.00;;;7.72
72054;BMP280;59918;51.280;7.950;2023-02-11T16:15:28;99793.97;;;7.69
72054;BMP280;59918;51.280;7.950;2023-02-11T16:17:53;99787.34;;;7.67
72054;BMP280;59918;51.280;7.950;2023-02-11T16:20:19;99791.78;;;7.65
72054;BMP280;59918;51.280;7.950;2023-02-11T16:22:45;99801.38;;;7.63
72054;BMP280;59918;51.280;7.950;2023-02-11T16:25:18;99804.09;;;7.62
72054;BMP280;59918;51.280;7.950;2023-02-11T16:27:48;99803.56;;;7.58
72054;BMP280;59918;51.280;7.950;2023-02-11T16:30:33;99805.44;;;7.56
72054;BMP280;59918;51.280;7.950;2023-02-11T16:32:59;99804.09;;;7.52
72054;BMP280;59918;51.280;7.950;2023-02-11T16:35:24;99800.88;;;7.50
72054;BMP280;59918;51.280;7.950;2023-02-11T16:37:49;99799.25;;;7.49
72054;BMP280;59918;51.280;7.950;2023-02-11T16:40:15;99808.69;;;7.49
72054;BMP280;59918;51.280;7.950;2023-02-11T16:42:40;99809.63;;;7.48
72054;BMP280;59918;51.280;7.950;2023-02-11T16:45:06;99811.38;;;7.47
72054;BMP280;59918;51.280;7.950;2023-02-11T16:47:33;99811.38;;;7.47
72054;BMP280;59918;51.280;7.950;2023-02-11T16:49:59;99805.59;;;7.45
72054;BMP280;59918;51.280;7.950;2023-02-11T16:52:25;99817.59;;;7.45
72054;BMP280;59918;51.280;7.950;2023-02-11T16:54:50;99810.03;;;7.43
72054;BMP280;59918;51.280;7.950;2023-02-11T16:57:21;99818.50;;;7.44
72054;BMP280;59918;51.280;7.950;2023-02-11T16:59:46;99814.34;;;7.43
72054;BMP280;59918;51.280;7.950;2023-02-11T17:02:15;99822.03;;;7.43
72054;BMP280;59918;51.280;7.950;2023-02-11T17:04:41;99824.59;;;7.43
72054;BMP280;59918;51.280;7.950;2023-02-11T17:07:07;99817.84;;;7.42
72054;BMP280;59918;51.280;7.950;2023-02-11T17:09:32;99817.16;;;7.40
72054;BMP280;59918;51.280;7.950;2023-02-11T17:11:58;99815.56;;;7.39
72054;BMP280;59918;51.280;7.950;2023-02-11T17:14:23;99816.38;;;7.39
72054;BMP280;59918;51.280;7.950;2023-02-11T17:16:48;99822.44;;;7.38
72054;BMP280;59918;51.280;7.950;2023-02-11T17:19:16;99823.25;;;7.39
72054;BMP280;59918;51.280;7.950;2023-02-11T17:21:49;99826.59;;;7.39
72054;BMP280;59918;51.280;7.950;2023-02-11T17:24:19;99829.31;;;7.38
72054;BMP280;59918;51.280;7.950;2023-02-11T17:26:45;99835.38;;;7.37
72054;BMP280;59918;51.280;7.950;2023-02-11T17:29:14;99837.94;;;7.37
72054;BMP280;59918;51.280;7.950;2023-02-11T17:31:42;99841.31;;;7.37
72054;BMP280;59918;51.280;7.950;2023-02-11T17:34:07;99844.81;;;7.36
72054;BMP280;59918;51.280;7.950;2023-02-11T17:36:33;99836.19;;;7.37
72054;BMP280;59918;51.280;7.950;2023-02-11T17:39:03;99840.38;;;7.38